NE85 weather

Glaser Airport
Spalding, Nebraska, United States

Public forecast

Using degrees Fahrenheit for public forecast. Weather courtesy of forecast.io.

Closest aviation weather report (METAR) to Glaser Airport

Closest report is Albion Municipal Airport, 11.3 nm (21.0 km) ENE. Retrieved 2019/10/21 08:35 UTC (29 seconds ago):

KBVN 210835Z AUTO 30009KT 10SM BKN017 OVC075 06/04 A2943 RMK AO2 T00630043

Closest aviation forecast (TAF) to Glaser Airport

Closest forecast is Karl Stefan Memorial Airport, 42.7 nm (79.2 km) ENE. Retrieved 2019/10/21 06:22 UTC (2 hours ago):

TAF KOFK 210520Z 2106/2206 18009KT P6SM SCT050 SCT250 FM211000 27012KT P6SM BKN040 TEMPO 2110/2114 BKN025 FM211400 29016G24KT P6SM OVC020 FM211800 30022G32KT P6SM OVC012 FM212000 31024G36KT P6SM BKN020 FM220100 31022G30KT P6SM BKN035